sensor_id;sensor_type;location;lat;lon;timestamp;pressure;altitude;pressure_sealevel;temperature;humidity
63088;BME280;49173;43.164;27.786;2023-09-18T00:00:53;101049.81;;;18.74;71.27
63088;BME280;49173;43.164;27.786;2023-09-18T00:03:22;101052.66;;;18.73;71.67
63088;BME280;49173;43.164;27.786;2023-09-18T00:05:50;101044.63;;;18.71;71.39
63088;BME280;49173;43.164;27.786;2023-09-18T00:08:17;101043.75;;;18.71;71.39
63088;BME280;49173;43.164;27.786;2023-09-18T00:10:49;101037.66;;;18.67;71.23
63088;BME280;49173;43.164;27.786;2023-09-18T00:13:16;101039.63;;;18.65;71.87
63088;BME280;49173;43.164;27.786;2023-09-18T00:15:42;101026.28;;;18.62;72.12
63088;BME280;49173;43.164;27.786;2023-09-18T00:18:10;101035.53;;;18.59;72.21
63088;BME280;49173;43.164;27.786;2023-09-18T00:20:36;101026.88;;;18.54;71.92
63088;BME280;49173;43.164;27.786;2023-09-18T00:23:02;101030.34;;;18.56;71.77
63088;BME280;49173;43.164;27.786;2023-09-18T00:25:28;101031.53;;;18.52;72.06
63088;BME280;49173;43.164;27.786;2023-09-18T00:27:54;101029.69;;;18.53;72.25
63088;BME280;49173;43.164;27.786;2023-09-18T00:30:19;101027.34;;;18.48;72.14
63088;BME280;49173;43.164;27.786;2023-09-18T00:32:45;101030.41;;;18.44;72.48
63088;BME280;49173;43.164;27.786;2023-09-18T00:35:12;101030.41;;;18.44;72.65
63088;BME280;49173;43.164;27.786;2023-09-18T00:37:38;101023.25;;;18.43;72.93
63088;BME280;49173;43.164;27.786;2023-09-18T00:40:06;101027.81;;;18.42;73.08
63088;BME280;49173;43.164;27.786;2023-09-18T00:42:32;101037.81;;;18.42;73.08
63088;BME280;49173;43.164;27.786;2023-09-18T00:44:58;101032.38;;;18.42;72.96
63088;BME280;49173;43.164;27.786;2023-09-18T00:47:24;101031.41;;;18.43;72.88
63088;BME280;49173;43.164;27.786;2023-09-18T00:49:51;101032.38;;;18.42;73.01
63088;BME280;49173;43.164;27.786;2023-09-18T00:52:19;101025.09;;;18.42;73.09
63088;BME280;49173;43.164;27.786;2023-09-18T00:54:47;101028.94;;;18.39;73.21
63088;BME280;49173;43.164;27.786;2023-09-18T00:57:13;101019.88;;;18.39;73.06
63088;BME280;49173;43.164;27.786;2023-09-18T00:59:39;101024.44;;;18.38;73.12
63088;BME280;49173;43.164;27.786;2023-09-18T01:02:06;101020.00;;;18.37;73.44
63088;BME280;49173;43.164;27.786;2023-09-18T01:04:33;101016.44;;;18.37;73.47
63088;BME280;49173;43.164;27.786;2023-09-18T01:07:02;101028.16;;;18.37;73.44
63088;BME280;49173;43.164;27.786;2023-09-18T01:09:32;101019.41;;;18.34;73.13
63088;BME280;49173;43.164;27.786;2023-09-18T01:12:20;101023.09;;;18.33;73.49
63088;BME280;49173;43.164;27.786;2023-09-18T01:14:57;101016.16;;;18.29;73.47
63088;BME280;49173;43.164;27.786;2023-09-18T01:17:28;101017.63;;;18.22;73.56
63088;BME280;49173;43.164;27.786;2023-09-18T01:19:55;101014.66;;;18.25;73.89
63088;BME280;49173;43.164;27.786;2023-09-18T01:22:21;101003.91;;;18.23;73.38
63088;BME280;49173;43.164;27.786;2023-09-18T01:24:48;101006.00;;;18.20;73.73
63088;BME280;49173;43.164;27.786;2023-09-18T01:27:16;101009.81;;;18.17;73.38
63088;BME280;49173;43.164;27.786;2023-09-18T01:29:45;101011.78;;;18.15;73.51
63088;BME280;49173;43.164;27.786;2023-09-18T01:32:11;101015.69;;;18.11;74.02
63088;BME280;49173;43.164;27.786;2023-09-18T01:34:41;101018.78;;;18.06;74.35
63088;BME280;49173;43.164;27.786;2023-09-18T01:37:09;101014.81;;;17.99;75.02
63088;BME280;49173;43.164;27.786;2023-09-18T01:39:36;101009.59;;;17.96;75.02
63088;BME280;49173;43.164;27.786;2023-09-18T01:42:04;101018.38;;;18.00;74.56
63088;BME280;49173;43.164;27.786;2023-09-18T01:44:31;101014.69;;;18.01;74.16
63088;BME280;49173;43.164;27.786;2023-09-18T01:47:08;101018.25;;;18.01;73.98
63088;BME280;49173;43.164;27.786;2023-09-18T01:49:36;101017.41;;;18.01;73.62
63088;BME280;49173;43.164;27.786;2023-09-18T01:52:06;101019.38;;;17.99;73.94
63088;BME280;49173;43.164;27.786;2023-09-18T01:54:33;101017.84;;;17.95;74.08
63088;BME280;49173;43.164;27.786;2023-09-18T01:56:59;101010.94;;;17.91;74.71
63088;BME280;49173;43.164;27.786;2023-09-18T01:59:25;101008.31;;;17.89;74.61
63088;BME280;49173;43.164;27.786;2023-09-18T02:01:52;101011.16;;;17.88;74.66
63088;BME280;49173;43.164;27.786;2023-09-18T02:04:20;101014.97;;;17.85;74.91
63088;BME280;49173;43.164;27.786;2023-09-18T02:06:50;101019.41;;;17.86;74.55
63088;BME280;49173;43.164;27.786;2023-09-18T02:09:16;101015.97;;;17.84;74.78
63088;BME280;49173;43.164;27.786;2023-09-18T02:11:46;101017.81;;;17.83;74.84
63088;BME280;49173;43.164;27.786;2023-09-18T02:14:12;101014.31;;;17.81;74.95
63088;BME280;49173;43.164;27.786;2023-09-18T02:16:40;101014.44;;;17.80;74.91
63088;BME280;49173;43.164;27.786;2023-09-18T02:19:07;101011.84;;;17.78;75.16
63088;BME280;49173;43.164;27.786;2023-09-18T02:21:34;101010.13;;;17.77;74.94
63088;BME280;49173;43.164;27.786;2023-09-18T02:24:00;101018.47;;;17.74;74.98
63088;BME280;49173;43.164;27.786;2023-09-18T02:26:27;101022.38;;;17.70;74.86
63088;BME280;49173;43.164;27.786;2023-09-18T02:28:54;101028.81;;;17.69;75.12
63088;BME280;49173;43.164;27.786;2023-09-18T02:31:21;101031.59;;;17.68;75.03
63088;BME280;49173;43.164;27.786;2023-09-18T02:33:47;101030.00;;;17.65;75.24
63088;BME280;49173;43.164;27.786;2023-09-18T02:36:13;101033.56;;;17.66;75.52
63088;BME280;49173;43.164;27.786;2023-09-18T02:38:39;101030.13;;;17.64;75.35
63088;BME280;49173;43.164;27.786;2023-09-18T02:41:05;101023.16;;;17.60;75.49
63088;BME280;49173;43.164;27.786;2023-09-18T02:43:31;101023.28;;;17.58;75.56
63088;BME280;49173;43.164;27.786;2023-09-18T02:45:56;101033.41;;;17.56;75.51
63088;BME280;49173;43.164;27.786;2023-09-18T02:48:23;101025.25;;;17.56;75.54
63088;BME280;49173;43.164;27.786;2023-09-18T02:50:49;101020.56;;;17.58;75.22
63088;BME280;49173;43.164;27.786;2023-09-18T02:53:22;101024.59;;;17.52;75.37
63088;BME280;49173;43.164;27.786;2023-09-18T02:55:51;101023.72;;;17.52;75.21
63088;BME280;49173;43.164;27.786;2023-09-18T02:58:17;101028.41;;;17.50;75.45
63088;BME280;49173;43.164;27.786;2023-09-18T03:00:46;101023.19;;;17.47;75.63
63088;BME280;49173;43.164;27.786;2023-09-18T03:03:13;101024.97;;;17.48;75.62
63088;BME280;49173;43.164;27.786;2023-09-18T03:05:40;101025.91;;;17.47;75.21
63088;BME280;49173;43.164;27.786;2023-09-18T03:08:06;101021.59;;;17.44;75.60
63088;BME280;49173;43.164;27.786;2023-09-18T03:10:37;101027.75;;;17.46;75.47
63088;BME280;49173;43.164;27.786;2023-09-18T03:13:05;101028.13;;;17.42;75.37
63088;BME280;49173;43.164;27.786;2023-09-18T03:15:32;101029.19;;;17.39;75.09
63088;BME280;49173;43.164;27.786;2023-09-18T03:17:58;101038.19;;;17.40;75.08
63088;BME280;49173;43.164;27.786;2023-09-18T03:20:25;101032.00;;;17.38;75.39
63088;BME280;49173;43.164;27.786;2023-09-18T03:22:55;101040.16;;;17.38;75.65
63088;BME280;49173;43.164;27.786;2023-09-18T03:25:21;101037.56;;;17.36;75.73
63088;BME280;49173;43.164;27.786;2023-09-18T03:27:47;101037.56;;;17.36;75.89
63088;BME280;49173;43.164;27.786;2023-09-18T03:30:13;101025.59;;;17.39;76.00
63088;BME280;49173;43.164;27.786;2023-09-18T03:32:42;101027.34;;;17.40;76.07
63088;BME280;49173;43.164;27.786;2023-09-18T03:35:09;101032.56;;;17.43;75.97
63088;BME280;49173;43.164;27.786;2023-09-18T03:37:41;101024.41;;;17.43;76.13
63088;BME280;49173;43.164;27.786;2023-09-18T03:40:08;101030.59;;;17.45;76.21
63088;BME280;49173;43.164;27.786;2023-09-18T03:42:34;101031.56;;;17.44;76.38
63088;BME280;49173;43.164;27.786;2023-09-18T03:45:00;101031.47;;;17.45;76.38
63088;BME280;49173;43.164;27.786;2023-09-18T03:47:27;101029.59;;;17.46;76.50
63088;BME280;49173;43.164;27.786;2023-09-18T03:49:52;101028.75;;;17.45;76.10
63088;BME280;49173;43.164;27.786;2023-09-18T03:52:18;101030.38;;;17.48;76.47
63088;BME280;49173;43.164;27.786;2023-09-18T03:54:44;101026.69;;;17.49;76.44
63088;BME280;49173;43.164;27.786;2023-09-18T03:57:09;101026.44;;;17.52;76.53
63088;BME280;49173;43.164;27.786;2023-09-18T03:59:35;101030.88;;;17.53;76.67
63088;BME280;49173;43.164;27.786;2023-09-18T04:02:01;101037.97;;;17.55;76.21
63088;BME280;49173;43.164;27.786;2023-09-18T04:04:28;101035.13;;;17.57;76.50
63088;BME280;49173;43.164;27.786;2023-09-18T04:06:54;101028.59;;;17.60;76.69
63088;BME280;49173;43.164;27.786;2023-09-18T04:09:20;101038.59;;;17.59;76.82
63088;BME280;49173;43.164;27.786;2023-09-18T04:11:46;101030.44;;;17.59;76.92
63088;BME280;49173;43.164;27.786;2023-09-18T04:14:11;101036.63;;;17.61;77.28
63088;BME280;49173;43.164;27.786;2023-09-18T04:16:37;101041.09;;;17.62;77.25
63088;BME280;49173;43.164;27.786;2023-09-18T04:19:05;101033.69;;;17.64;77.70
63088;BME280;49173;43.164;27.786;2023-09-18T04:21:31;101033.69;;;17.64;77.65
63088;BME280;49173;43.164;27.786;2023-09-18T04:23:56;101049.00;;;17.78;77.42
63088;BME280;49173;43.164;27.786;2023-09-18T04:26:27;101039.25;;;17.99;77.01
63088;BME280;49173;43.164;27.786;2023-09-18T04:29:00;101044.38;;;18.15;75.82
63088;BME280;49173;43.164;27.786;2023-09-18T04:31:27;101041.81;;;18.25;75.64
63088;BME280;49173;43.164;27.786;2023-09-18T04:33:53;101036.25;;;18.50;75.09
63088;BME280;49173;43.164;27.786;2023-09-18T04:36:19;101050.97;;;19.05;72.98
63088;BME280;49173;43.164;27.786;2023-09-18T04:38:45;101050.63;;;19.77;71.32
63088;BME280;49173;43.164;27.786;2023-09-18T04:41:11;101048.56;;;20.45;68.10
63088;BME280;49173;43.164;27.786;2023-09-18T04:43:37;101052.44;;;20.84;65.82
63088;BME280;49173;43.164;27.786;2023-09-18T04:46:06;101054.91;;;21.08;64.81
63088;BME280;49173;43.164;27.786;2023-09-18T04:48:32;101052.19;;;21.18;64.61
63088;BME280;49173;43.164;27.786;2023-09-18T04:50:59;101059.19;;;21.10;65.00
63088;BME280;49173;43.164;27.786;2023-09-18T04:53:27;101055.81;;;20.97;65.56
63088;BME280;49173;43.164;27.786;2023-09-18T04:55:53;101055.31;;;20.82;65.44
63088;BME280;49173;43.164;27.786;2023-09-18T04:58:19;101049.50;;;20.76;65.44
63088;BME280;49173;43.164;27.786;2023-09-18T05:00:45;101053.03;;;20.67;65.59
63088;BME280;49173;43.164;27.786;2023-09-18T05:03:12;101056.16;;;20.62;65.62
63088;BME280;49173;43.164;27.786;2023-09-18T05:05:48;101051.84;;;20.60;65.52
63088;BME280;49173;43.164;27.786;2023-09-18T05:08:14;101059.88;;;20.61;65.43
63088;BME280;49173;43.164;27.786;2023-09-18T05:10:40;101050.56;;;20.64;65.31
63088;BME280;49173;43.164;27.786;2023-09-18T05:13:05;101050.19;;;20.68;64.96
63088;BME280;49173;43.164;27.786;2023-09-18T05:15:32;101047.78;;;20.75;64.59
63088;BME280;49173;43.164;27.786;2023-09-18T05:18:00;101048.38;;;20.78;64.09
63088;BME280;49173;43.164;27.786;2023-09-18T05:20:30;101048.97;;;20.82;64.25
63088;BME280;49173;43.164;27.786;2023-09-18T05:22:58;101049.31;;;20.89;63.87
63088;BME280;49173;43.164;27.786;2023-09-18T05:25:25;101050.91;;;20.91;64.19
63088;BME280;49173;43.164;27.786;2023-09-18T05:27:53;101047.63;;;20.97;64.30
63088;BME280;49173;43.164;27.786;2023-09-18T05:30:27;101050.00;;;21.11;64.01
63088;BME280;49173;43.164;27.786;2023-09-18T05:32:54;101048.94;;;21.24;63.08
63088;BME280;49173;43.164;27.786;2023-09-18T05:35:20;101047.69;;;21.28;62.95
63088;BME280;49173;43.164;27.786;2023-09-18T05:37:46;101042.81;;;21.31;62.52
63088;BME280;49173;43.164;27.786;2023-09-18T05:40:13;101043.81;;;21.30;62.73
63088;BME280;49173;43.164;27.786;2023-09-18T05:42:42;101050.00;;;21.32;63.05
63088;BME280;49173;43.164;27.786;2023-09-18T05:45:10;101044.53;;;21.32;63.01
63088;BME280;49173;43.164;27.786;2023-09-18T05:47:36;101051.47;;;21.36;62.77
63088;BME280;49173;43.164;27.786;2023-09-18T05:50:08;101042.13;;;21.39;63.25
63088;BME280;49173;43.164;27.786;2023-09-18T05:52:34;101045.31;;;21.44;63.31
63088;BME280;49173;43.164;27.786;2023-09-18T05:55:02;101034.72;;;21.51;63.49
63088;BME280;49173;43.164;27.786;2023-09-18T05:57:27;101041.59;;;21.55;63.43
63088;BME280;49173;43.164;27.786;2023-09-18T05:59:56;101039.91;;;21.63;63.36
63088;BME280;49173;43.164;27.786;2023-09-18T06:02:23;101045.69;;;21.70;63.43
63088;BME280;49173;43.164;27.786;2023-09-18T06:04:54;101038.66;;;21.77;62.81
63088;BME280;49173;43.164;27.786;2023-09-18T06:07:21;101039.41;;;21.79;61.97
63088;BME280;49173;43.164;27.786;2023-09-18T06:09:48;101047.16;;;21.84;62.41
63088;BME280;49173;43.164;27.786;2023-09-18T06:12:14;101046.44;;;21.91;62.29
63088;BME280;49173;43.164;27.786;2023-09-18T06:14:40;101043.75;;;22.01;61.64
63088;BME280;49173;43.164;27.786;2023-09-18T06:17:05;101045.31;;;22.04;61.18
63088;BME280;49173;43.164;27.786;2023-09-18T06:19:31;101042.72;;;22.02;60.50
63088;BME280;49173;43.164;27.786;2023-09-18T06:21:58;101045.19;;;22.05;60.23
63088;BME280;49173;43.164;27.786;2023-09-18T06:24:24;101050.09;;;22.11;59.92
63088;BME280;49173;43.164;27.786;2023-09-18T06:26:50;101053.28;;;22.16;59.38
63088;BME280;49173;43.164;27.786;2023-09-18T06:29:16;101050.56;;;22.16;59.31
63088;BME280;49173;43.164;27.786;2023-09-18T06:31:42;101053.28;;;22.16;58.72
63088;BME280;49173;43.164;27.786;2023-09-18T06:34:07;101056.47;;;22.22;58.50
63088;BME280;49173;43.164;27.786;2023-09-18T06:36:33;101053.59;;;22.23;58.23
63088;BME280;49173;43.164;27.786;2023-09-18T06:38:59;101049.69;;;22.26;57.87
63088;BME280;49173;43.164;27.786;2023-09-18T06:41:25;101048.97;;;22.24;58.25
63088;BME280;49173;43.164;27.786;2023-09-18T06:43:50;101054.44;;;22.24;58.25
63088;BME280;49173;43.164;27.786;2023-09-18T06:46:16;101055.72;;;22.19;59.28
63088;BME280;49173;43.164;27.786;2023-09-18T06:48:42;101049.69;;;22.26;58.78
63088;BME280;49173;43.164;27.786;2023-09-18T06:51:11;101051.59;;;22.35;57.96
63088;BME280;49173;43.164;27.786;2023-09-18T06:53:37;101049.69;;;22.45;57.62
63088;BME280;49173;43.164;27.786;2023-09-18T06:56:03;101050.72;;;22.44;57.19
63088;BME280;49173;43.164;27.786;2023-09-18T06:58:29;101044.38;;;22.34;57.56
63088;BME280;49173;43.164;27.786;2023-09-18T07:00:55;101043.22;;;22.27;57.80
63088;BME280;49173;43.164;27.786;2023-09-18T07:03:23;101052.16;;;22.29;58.38
63088;BME280;49173;43.164;27.786;2023-09-18T07:05:49;101049.97;;;22.32;58.89
63088;BME280;49173;43.164;27.786;2023-09-18T07:08:15;101034.31;;;22.34;57.78
63088;BME280;49173;43.164;27.786;2023-09-18T07:10:45;101043.50;;;22.33;56.66
63088;BME280;49173;43.164;27.786;2023-09-18T07:13:11;101049.84;;;22.24;56.72
63088;BME280;49173;43.164;27.786;2023-09-18T07:15:39;101033.13;;;22.17;56.17
63088;BME280;49173;43.164;27.786;2023-09-18T07:18:05;101045.81;;;22.18;56.74
63088;BME280;49173;43.164;27.786;2023-09-18T07:20:30;101046.25;;;22.24;56.64
63088;BME280;49173;43.164;27.786;2023-09-18T07:22:56;101041.50;;;22.26;53.51
63088;BME280;49173;43.164;27.786;2023-09-18T07:25:22;101048.69;;;22.27;54.06
63088;BME280;49173;43.164;27.786;2023-09-18T07:27:48;101045.09;;;22.36;54.50
63088;BME280;49173;43.164;27.786;2023-09-18T07:30:14;101041.19;;;22.48;52.87
63088;BME280;49173;43.164;27.786;2023-09-18T07:32:45;101042.34;;;22.65;51.88
63088;BME280;49173;43.164;27.786;2023-09-18T07:35:11;101064.81;;;22.78;50.66
63088;BME280;49173;43.164;27.786;2023-09-18T07:37:39;101048.94;;;22.82;50.57
63088;BME280;49173;43.164;27.786;2023-09-18T07:40:06;101039.59;;;22.94;49.31
63088;BME280;49173;43.164;27.786;2023-09-18T07:42:33;101048.34;;;22.97;49.48
63088;BME280;49173;43.164;27.786;2023-09-18T07:44:59;101052.38;;;23.03;49.45
63088;BME280;49173;43.164;27.786;2023-09-18T07:47:25;101050.06;;;23.08;49.64
63088;BME280;49173;43.164;27.786;2023-09-18T07:49:51;101045.56;;;23.17;48.26
63088;BME280;49173;43.164;27.786;2023-09-18T07:52:19;101044.13;;;23.22;47.79
63088;BME280;49173;43.164;27.786;2023-09-18T07:54:45;101049.75;;;23.21;48.66
63088;BME280;49173;43.164;27.786;2023-09-18T07:57:12;101042.66;;;23.28;48.04
63088;BME280;49173;43.164;27.786;2023-09-18T07:59:39;101039.44;;;23.33;47.98
63088;BME280;49173;43.164;27.786;2023-09-18T08:02:06;101052.00;;;23.35;47.43
63088;BME280;49173;43.164;27.786;2023-09-18T08:04:32;101047.53;;;23.34;47.97
63088;BME280;49173;43.164;27.786;2023-09-18T08:06:57;101046.78;;;23.42;48.83
63088;BME280;49173;43.164;27.786;2023-09-18T08:09:23;101048.63;;;23.51;46.89
63088;BME280;49173;43.164;27.786;2023-09-18T08:11:49;101059.88;;;23.48;46.24
63088;BME280;49173;43.164;27.786;2023-09-18T08:14:15;101037.97;;;23.48;45.97
63088;BME280;49173;43.164;27.786;2023-09-18T08:16:42;101033.50;;;23.47;46.71
63088;BME280;49173;43.164;27.786;2023-09-18T08:19:08;101030.59;;;23.48;45.83
63088;BME280;49173;43.164;27.786;2023-09-18T08:21:35;101038.50;;;23.51;46.76
63088;BME280;49173;43.164;27.786;2023-09-18T08:24:01;101034.88;;;23.61;48.10
63088;BME280;49173;43.164;27.786;2023-09-18T08:26:26;101034.28;;;23.67;46.53
63088;BME280;49173;43.164;27.786;2023-09-18T08:28:54;101032.72;;;23.64;47.69
63088;BME280;49173;43.164;27.786;2023-09-18T08:31:20;101027.94;;;23.66;49.29
63088;BME280;49173;43.164;27.786;2023-09-18T08:33:45;101030.94;;;23.73;50.35
63088;BME280;49173;43.164;27.786;2023-09-18T08:36:12;101023.56;;;23.73;50.28
63088;BME280;49173;43.164;27.786;2023-09-18T08:38:38;101029.97;;;23.64;50.13
63088;BME280;49173;43.164;27.786;2023-09-18T08:41:04;101025.78;;;23.60;49.62
63088;BME280;49173;43.164;27.786;2023-09-18T08:43:31;101025.78;;;23.60;50.75
63088;BME280;49173;43.164;27.786;2023-09-18T08:45:58;101038.91;;;23.66;49.68
63088;BME280;49173;43.164;27.786;2023-09-18T08:48:28;101024.03;;;23.59;48.62
63088;BME280;49173;43.164;27.786;2023-09-18T08:51:05;101024.91;;;23.60;49.30
63088;BME280;49173;43.164;27.786;2023-09-18T08:53:32;101021.06;;;23.62;48.25
63088;BME280;49173;43.164;27.786;2023-09-18T08:56:02;101029.84;;;23.56;48.88
63088;BME280;49173;43.164;27.786;2023-09-18T08:58:34;101037.63;;;23.61;49.49
63088;BME280;49173;43.164;27.786;2023-09-18T09:01:06;101024.22;;;23.57;50.04
63088;BME280;49173;43.164;27.786;2023-09-18T09:03:42;101036.63;;;23.62;49.79
63088;BME280;49173;43.164;27.786;2023-09-18T09:06:09;101036.88;;;23.68;50.18
63088;BME280;49173;43.164;27.786;2023-09-18T09:08:36;101036.47;;;23.63;50.46
63088;BME280;49173;43.164;27.786;2023-09-18T09:11:02;101032.88;;;23.63;50.32
63088;BME280;49173;43.164;27.786;2023-09-18T09:13:29;101032.28;;;23.59;50.68
63088;BME280;49173;43.164;27.786;2023-09-18T09:15:56;101030.84;;;23.65;51.12
63088;BME280;49173;43.164;27.786;2023-09-18T09:18:29;101033.75;;;23.63;51.79
63088;BME280;49173;43.164;27.786;2023-09-18T09:21:02;101043.84;;;23.63;51.17
63088;BME280;49173;43.164;27.786;2023-09-18T09:23:46;101049.16;;;23.64;52.34
63088;BME280;49173;43.164;27.786;2023-09-18T09:26:18;101048.31;;;23.54;52.18
63088;BME280;49173;43.164;27.786;2023-09-18T09:28:45;101046.72;;;23.51;52.49
63088;BME280;49173;43.164;27.786;2023-09-18T09:31:11;101034.91;;;23.51;53.15
63088;BME280;49173;43.164;27.786;2023-09-18T09:33:50;101058.88;;;23.49;52.35
63088;BME280;49173;43.164;27.786;2023-09-18T09:36:20;101044.16;;;23.50;51.55
63088;BME280;49173;43.164;27.786;2023-09-18T09:38:46;101054.25;;;23.49;52.39
63088;BME280;49173;43.164;27.786;2023-09-18T09:41:15;101042.44;;;23.49;50.94
63088;BME280;49173;43.164;27.786;2023-09-18T09:43:43;101043.44;;;23.48;51.15
63088;BME280;49173;43.164;27.786;2023-09-18T09:46:17;101049.03;;;23.56;50.99
63088;BME280;49173;43.164;27.786;2023-09-18T09:49:04;101032.59;;;23.56;51.16
63088;BME280;49173;43.164;27.786;2023-09-18T09:51:31;101040.38;;;23.61;51.00
63088;BME280;49173;43.164;27.786;2023-09-18T09:53:58;101037.50;;;23.62;49.18
63088;BME280;49173;43.164;27.786;2023-09-18T09:56:44;101044.25;;;23.58;49.33
63088;BME280;49173;43.164;27.786;2023-09-18T09:59:12;101039.69;;;23.49;48.67
63088;BME280;49173;43.164;27.786;2023-09-18T10:01:39;101033.03;;;23.51;49.77
63088;BME280;49173;43.164;27.786;2023-09-18T10:04:12;101035.94;;;23.50;48.95
63088;BME280;49173;43.164;27.786;2023-09-18T10:06:41;101023.94;;;23.51;49.68
63088;BME280;49173;43.164;27.786;2023-09-18T10:09:08;101036.03;;;23.58;46.16
63088;BME280;49173;43.164;27.786;2023-09-18T10:11:41;101036.72;;;23.60;49.37
63088;BME280;49173;43.164;27.786;2023-09-18T10:14:19;101032.59;;;23.56;50.96
63088;BME280;49173;43.164;27.786;2023-09-18T10:16:53;101036.72;;;23.60;50.07
63088;BME280;49173;43.164;27.786;2023-09-18T10:19:27;101035.47;;;23.64;50.42
63088;BME280;49173;43.164;27.786;2023-09-18T10:22:15;101039.00;;;23.74;50.42
63088;BME280;49173;43.164;27.786;2023-09-18T10:24:47;101042.91;;;23.72;50.86
63088;BME280;49173;43.164;27.786;2023-09-18T10:27:16;101023.88;;;23.70;49.73
63088;BME280;49173;43.164;27.786;2023-09-18T10:29:45;101029.53;;;23.69;50.88
63088;BME280;49173;43.164;27.786;2023-09-18T10:32:14;101028.66;;;23.68;50.66
63088;BME280;49173;43.164;27.786;2023-09-18T10:34:41;101030.22;;;23.71;49.92
63088;BME280;49173;43.164;27.786;2023-09-18T10:37:10;101025.94;;;23.68;49.23
63088;BME280;49173;43.164;27.786;2023-09-18T10:39:38;101013.47;;;23.74;48.41
63088;BME280;49173;43.164;27.786;2023-09-18T10:42:08;101022.09;;;23.79;47.44
63088;BME280;49173;43.164;27.786;2023-09-18T10:44:35;101021.94;;;23.80;47.09
63088;BME280;49173;43.164;27.786;2023-09-18T10:47:05;101030.78;;;23.74;46.19
63088;BME280;49173;43.164;27.786;2023-09-18T10:49:34;101014.47;;;23.73;45.83
63088;BME280;49173;43.164;27.786;2023-09-18T10:52:00;100998.97;;;23.81;45.83
63088;BME280;49173;43.164;27.786;2023-09-18T10:54:29;101003.22;;;23.94;45.26
63088;BME280;49173;43.164;27.786;2023-09-18T10:56:56;101001.44;;;24.02;43.51
63088;BME280;49173;43.164;27.786;2023-09-18T10:59:23;101001.38;;;24.12;44.27
63088;BME280;49173;43.164;27.786;2023-09-18T11:01:49;101003.88;;;24.23;42.35
63088;BME280;49173;43.164;27.786;2023-09-18T11:04:18;101001.00;;;24.25;41.57
63088;BME280;49173;43.164;27.786;2023-09-18T11:09:27;100995.84;;;24.40;42.65
63088;BME280;49173;43.164;27.786;2023-09-18T11:14:58;100995.03;;;24.47;40.40
63088;BME280;49173;43.164;27.786;2023-09-18T11:20:25;100989.44;;;24.57;40.28
63088;BME280;49173;43.164;27.786;2023-09-18T11:22:58;100994.81;;;24.66;41.41
63088;BME280;49173;43.164;27.786;2023-09-18T11:28:28;100992.81;;;24.69;40.33
63088;BME280;49173;43.164;27.786;2023-09-18T11:30:56;100991.22;;;24.66;42.03
63088;BME280;49173;43.164;27.786;2023-09-18T11:33:35;100973.03;;;24.65;39.16
63088;BME280;49173;43.164;27.786;2023-09-18T11:36:11;100989.50;;;24.65;42.69
63088;BME280;49173;43.164;27.786;2023-09-18T11:39:06;100988.19;;;24.51;40.10
63088;BME280;49173;43.164;27.786;2023-09-18T11:41:34;100994.47;;;24.44;42.54
63088;BME280;49173;43.164;27.786;2023-09-18T11:46:40;100986.75;;;24.39;41.99
63088;BME280;49173;43.164;27.786;2023-09-18T11:49:11;100986.97;;;24.46;41.80
63088;BME280;49173;43.164;27.786;2023-09-18T11:51:38;100989.78;;;24.54;40.81
63088;BME280;49173;43.164;27.786;2023-09-18T11:54:05;100988.41;;;24.58;39.70
63088;BME280;49173;43.164;27.786;2023-09-18T11:56:33;100972.50;;;24.61;42.01
63088;BME280;49173;43.164;27.786;2023-09-18T11:58:59;100988.16;;;24.69;42.72
63088;BME280;49173;43.164;27.786;2023-09-18T12:01:25;100972.38;;;24.71;44.29
63088;BME280;49173;43.164;27.786;2023-09-18T12:03:53;100976.03;;;24.80;45.52
63088;BME280;49173;43.164;27.786;2023-09-18T12:06:20;100982.47;;;24.88;45.15
63088;BME280;49173;43.164;27.786;2023-09-18T12:08:52;100989.19;;;24.94;43.95
63088;BME280;49173;43.164;27.786;2023-09-18T12:11:18;100982.81;;;24.93;43.28
63088;BME280;49173;43.164;27.786;2023-09-18T12:13:51;100975.63;;;24.92;43.74
63088;BME280;49173;43.164;27.786;2023-09-18T12:16:17;100978.19;;;24.94;44.03
63088;BME280;49173;43.164;27.786;2023-09-18T12:18:50;100980.94;;;24.94;44.54
63088;BME280;49173;43.164;27.786;2023-09-18T12:21:17;100979.78;;;24.97;43.82
63088;BME280;49173;43.164;27.786;2023-09-18T12:23:44;100975.22;;;25.05;43.61
63088;BME280;49173;43.164;27.786;2023-09-18T12:26:12;100980.22;;;25.10;43.45
63088;BME280;49173;43.164;27.786;2023-09-18T12:28:39;100979.97;;;25.03;44.09
63088;BME280;49173;43.164;27.786;2023-09-18T12:31:06;100981.31;;;24.99;45.63
63088;BME280;49173;43.164;27.786;2023-09-18T12:33:36;100973.63;;;25.03;46.20
63088;BME280;49173;43.164;27.786;2023-09-18T12:36:03;100968.69;;;25.06;44.36
63088;BME280;49173;43.164;27.786;2023-09-18T12:38:31;100967.00;;;25.13;45.43
63088;BME280;49173;43.164;27.786;2023-09-18T12:40:57;100969.25;;;25.10;46.46
63088;BME280;49173;43.164;27.786;2023-09-18T12:43:41;100965.69;;;25.26;44.95
63088;BME280;49173;43.164;27.786;2023-09-18T12:46:08;100961.75;;;25.28;42.74
63088;BME280;49173;43.164;27.786;2023-09-18T12:48:38;100955.03;;;25.23;44.26
63088;BME280;49173;43.164;27.786;2023-09-18T12:51:05;100960.38;;;25.24;42.88
63088;BME280;49173;43.164;27.786;2023-09-18T12:53:33;100960.69;;;25.21;42.90
63088;BME280;49173;43.164;27.786;2023-09-18T12:56:09;100956.59;;;25.25;42.39
63088;BME280;49173;43.164;27.786;2023-09-18T12:58:36;100959.53;;;25.24;44.50